Terminal Aerodrome Forecast
Issued by NWS

Home | Current Version | Previous Version | Text Only | Print | Product List | Glossary Off
Versions: 1 2 3 4 5 6 7 8 9 10 11 12 13 14 15 16 17 18 19 20 21 22

000
FTUS43 KFGF 241355 AAA
TAFBJI
TAF AMD
KBJI 241355Z 2414/2512 14010KT 3SM BR OVC003
     FM241600 14013G18KT P6SM BKN008
     FM241800 14014G19KT P6SM BKN025
     FM250100 14011KT P6SM VCTS OVC015CB
     FM250600 15009KT P6SM VCSH OVC003
     FM250900 17008KT P6SM BKN003=

USA.gov is the U.S. government's official web portal to all federal, state and local government web resources and services.